createdAt,value
2023-04-22T00:01:47.810Z,84.73
2023-04-22T00:06:05.229Z,84.84
2023-04-22T00:10:22.750Z,84.88
2023-04-22T00:14:40.443Z,85.01
2023-04-22T00:18:59.539Z,85.21
2023-04-22T00:23:17.129Z,85.13
2023-04-22T00:27:34.988Z,85.13
2023-04-22T00:31:52.535Z,85.34
2023-04-22T00:36:10.248Z,85.57
2023-04-22T00:40:27.784Z,85.78
2023-04-22T00:44:46.880Z,85.59
2023-04-22T00:49:05.624Z,85.84
2023-04-22T00:53:23.011Z,85.79
2023-04-22T00:57:41.068Z,85.57
2023-04-22T01:01:58.607Z,85.67
2023-04-22T01:06:19.119Z,85.79
2023-04-22T01:10:36.834Z,85.96
2023-04-22T01:14:54.577Z,86.09
2023-04-22T01:19:12.169Z,86.08
2023-04-22T01:23:30.564Z,85.82
2023-04-22T01:27:47.969Z,85.83
2023-04-22T01:32:06.523Z,86.19
2023-04-22T01:36:24.413Z,86.28
2023-04-22T01:40:41.885Z,86.41
2023-04-22T01:44:59.933Z,86.46
2023-04-22T01:49:17.667Z,86.59
2023-04-22T01:53:36.364Z,86.52
2023-04-22T01:57:53.912Z,86.56
2023-04-22T02:02:11.505Z,86.54
2023-04-22T02:06:28.950Z,86.65
2023-04-22T02:10:46.481Z,86.65
2023-04-22T02:15:04.606Z,86.48
2023-04-22T02:19:23.318Z,86.37
2023-04-22T02:23:41.690Z,86.49
2023-04-22T02:27:59.192Z,86.62
2023-04-22T02:32:17.782Z,86.59
2023-04-22T02:36:35.347Z,86.50
2023-04-22T02:40:53.160Z,86.55
2023-04-22T02:45:11.165Z,86.77
2023-04-22T02:49:28.901Z,86.87
2023-04-22T02:53:46.364Z,86.90
2023-04-22T02:58:04.021Z,86.80
2023-04-22T03:02:21.591Z,86.68
2023-04-22T03:06:39.316Z,86.81
2023-04-22T03:10:56.780Z,86.65
2023-04-22T03:15:14.408Z,86.68
2023-04-22T03:19:31.815Z,86.75
2023-04-22T03:23:49.382Z,86.84
2023-04-22T03:28:06.783Z,87.05
2023-04-22T03:32:24.580Z,87.15
2023-04-22T03:36:42.041Z,87.12
2023-04-22T03:40:59.788Z,87.02
2023-04-22T03:45:17.226Z,86.95
2023-04-22T03:49:35.020Z,87.00
2023-04-22T03:53:52.427Z,87.39
2023-04-22T03:58:10.075Z,87.33
2023-04-22T04:02:27.679Z,87.29
2023-04-22T04:06:45.521Z,87.23
2023-04-22T04:11:02.926Z,87.35
2023-04-22T04:15:21.703Z,87.21
2023-04-22T04:19:39.462Z,87.13
2023-04-22T04:23:57.432Z,87.07
2023-04-22T04:28:14.860Z,86.71
2023-04-22T04:32:34.571Z,86.42
2023-04-22T04:36:52.035Z,86.11
2023-04-22T04:41:10.132Z,86.20
2023-04-22T04:45:27.658Z,85.96
2023-04-22T04:49:46.786Z,85.76
2023-04-22T04:54:04.422Z,85.74
2023-04-22T04:58:21.798Z,85.58
2023-04-22T05:02:39.507Z,86.08
2023-04-22T05:06:57.229Z,85.96
2023-04-22T05:11:14.688Z,85.54
2023-04-22T05:15:32.202Z,84.57
2023-04-22T05:19:49.787Z,82.40
2023-04-22T05:24:07.487Z,80.97
2023-04-22T05:28:25.057Z,79.99
2023-04-22T05:32:42.765Z,78.81
2023-04-22T05:37:00.240Z,75.00
2023-04-22T05:41:17.901Z,74.20
2023-04-22T05:45:35.533Z,72.05
2023-04-22T05:49:53.200Z,69.47
2023-04-22T05:54:10.857Z,68.81
2023-04-22T05:58:28.293Z,68.32
2023-04-22T06:02:46.184Z,67.42
2023-04-22T06:07:04.150Z,64.73
2023-04-22T06:11:22.302Z,62.18
2023-04-22T06:15:39.878Z,61.63
2023-04-22T06:19:57.483Z,59.11
2023-04-22T06:24:14.905Z,58.18
2023-04-22T06:28:32.628Z,57.03
2023-04-22T06:32:55.384Z,59.58
2023-04-22T06:37:13.054Z,58.77
2023-04-22T06:41:31.190Z,53.68
2023-04-22T06:45:50.295Z,52.39
2023-04-22T06:50:09.263Z,52.15
2023-04-22T06:54:26.785Z,49.41
2023-04-22T06:58:44.414Z,50.08
2023-04-22T07:03:04.862Z,50.94
2023-04-22T07:07:22.476Z,44.81
2023-04-22T07:11:39.952Z,44.51
2023-04-22T07:15:57.612Z,43.19
2023-04-22T07:20:15.058Z,46.47
2023-04-22T07:24:32.954Z,45.59
2023-04-22T07:28:50.681Z,41.44
2023-04-22T07:33:08.444Z,38.29
2023-04-22T07:37:26.034Z,42.86
2023-04-22T07:42:25.482Z,37.01
2023-04-22T07:46:43.572Z,38.17
2023-04-22T07:51:01.842Z,35.81
2023-04-22T07:55:19.407Z,37.23
2023-04-22T07:59:37.508Z,39.19
2023-04-22T08:03:55.658Z,38.51
2023-04-22T08:08:13.748Z,39.19
2023-04-22T08:12:31.415Z,37.11
2023-04-22T08:16:49.065Z,38.00
2023-04-22T08:21:07.204Z,36.33
2023-04-22T08:25:24.645Z,34.49
2023-04-22T08:29:42.863Z,33.38
2023-04-22T08:34:00.334Z,35.50
2023-04-22T08:38:18.959Z,32.73
2023-04-22T08:42:37.995Z,32.72
2023-04-22T08:46:56.625Z,29.87
2023-04-22T08:51:17.941Z,32.63
2023-04-22T08:55:36.656Z,32.46
2023-04-22T08:59:57.258Z,30.35
2023-04-22T09:04:15.730Z,27.89
2023-04-22T09:08:35.054Z,29.92
2023-04-22T09:12:53.668Z,26.58
2023-04-22T09:17:12.003Z,29.71
2023-04-22T09:21:33.527Z,30.31
2023-04-22T09:25:51.268Z,28.55
2023-04-22T09:30:10.780Z,27.73
2023-04-22T09:34:28.425Z,26.46
2023-04-22T09:38:54.562Z,30.93
2023-04-22T09:43:12.922Z,32.44
2023-04-22T09:47:37.034Z,26.71
2023-04-22T09:51:58.400Z,25.07
2023-04-22T09:56:16.425Z,27.59
2023-04-22T10:00:38.159Z,27.01
2023-04-22T10:04:56.954Z,29.66
2023-04-22T10:09:19.897Z,23.11
2023-04-22T10:13:37.413Z,23.14
2023-04-22T10:17:56.299Z,24.82
2023-04-22T10:22:14.362Z,24.41
2023-04-22T10:27:03.192Z,22.45
2023-04-22T10:31:24.217Z,24.01
2023-04-22T10:36:02.023Z,22.30
2023-04-22T10:40:23.052Z,20.79
2023-04-22T10:44:53.093Z,20.13
2023-04-22T10:49:13.088Z,19.61
2023-04-22T10:53:37.906Z,21.75
2023-04-22T10:57:55.585Z,23.50
2023-04-22T11:02:16.268Z,21.24
2023-04-22T11:06:33.892Z,20.58
2023-04-22T11:10:52.393Z,20.37
2023-04-22T11:15:12.630Z,20.12
2023-04-22T11:19:30.469Z,17.59
2023-04-22T11:23:53.343Z,18.82
2023-04-22T11:28:11.281Z,17.77
2023-04-22T11:32:30.075Z,14.31
2023-04-22T11:36:47.877Z,15.99
2023-04-22T11:41:05.611Z,15.98
2023-04-22T11:45:24.290Z,15.53
2023-04-22T11:49:41.874Z,13.50
2023-04-22T11:54:00.584Z,14.10
2023-04-22T11:58:25.075Z,15.98
2023-04-22T12:02:44.662Z,15.56
2023-04-22T12:07:04.139Z,13.65
2023-04-22T12:11:22.309Z,12.56
2023-04-22T12:15:43.489Z,14.19
2023-04-22T12:20:01.604Z,10.99
2023-04-22T12:24:22.643Z,11.22
2023-04-22T12:28:41.621Z,9.91
2023-04-22T12:32:59.166Z,11.61
2023-04-22T12:37:18.973Z,8.33
2023-04-22T12:41:36.594Z,12.30
2023-04-22T12:45:54.766Z,11.77
2023-04-22T12:50:12.618Z,8.72
2023-04-22T12:54:30.277Z,9.50
2023-04-22T12:58:48.208Z,10.53
2023-04-22T13:03:05.862Z,7.44
2023-04-22T13:07:23.655Z,9.48
2023-04-22T13:11:41.330Z,9.75
2023-04-22T13:15:59.117Z,17.81
2023-04-22T13:20:17.155Z,12.57
2023-04-22T13:24:34.770Z,10.96
2023-04-22T13:28:52.506Z,10.60
2023-04-22T13:33:10.216Z,15.07
2023-04-22T13:37:27.854Z,21.23
2023-04-22T13:41:46.053Z,21.85
2023-04-22T13:46:03.948Z,22.91
2023-04-22T13:50:22.806Z,17.18
2023-04-22T13:54:40.699Z,12.81
2023-04-22T13:58:58.791Z,10.46
2023-04-22T14:03:16.726Z,9.93
2023-04-22T14:07:34.379Z,9.88
2023-04-22T14:11:52.196Z,10.97
2023-04-22T14:16:11.493Z,14.06
2023-04-22T14:20:29.255Z,14.31
2023-04-22T14:24:46.493Z,13.75
2023-04-22T14:29:04.132Z,11.08
2023-04-22T14:33:25.581Z,11.15
2023-04-22T14:37:45.250Z,13.79
2023-04-22T14:42:04.231Z,14.61
2023-04-22T14:46:22.235Z,19.18
2023-04-22T14:50:40.162Z,20.70
2023-04-22T14:55:00.178Z,14.89
2023-04-22T14:59:22.364Z,10.30
2023-04-22T15:03:40.253Z,9.96
2023-04-22T15:07:58.171Z,10.07
2023-04-22T15:12:15.553Z,11.22
2023-04-22T15:16:35.165Z,9.89
2023-04-22T15:20:52.881Z,11.37
2023-04-22T15:25:11.032Z,11.61
2023-04-22T15:29:28.899Z,10.46
2023-04-22T15:33:46.577Z,10.07
2023-04-22T15:38:06.928Z,10.98
2023-04-22T15:42:26.785Z,11.21
2023-04-22T15:46:46.778Z,10.72
2023-04-22T15:51:04.434Z,11.41
2023-04-22T15:55:22.399Z,11.71
2023-04-22T15:59:42.658Z,12.95
2023-04-22T16:04:08.524Z,12.31
2023-04-22T16:08:26.492Z,13.18
2023-04-22T16:12:47.482Z,13.26
2023-04-22T16:17:06.078Z,12.41
2023-04-22T16:21:30.501Z,14.77
2023-04-22T16:25:50.404Z,14.37
2023-04-22T16:30:09.213Z,15.14
2023-04-22T16:34:28.097Z,16.70
2023-04-22T16:38:45.837Z,16.42
2023-04-22T16:43:06.099Z,17.36
2023-04-22T16:47:27.137Z,19.78
2023-04-22T16:51:44.853Z,26.20
2023-04-22T16:56:02.960Z,30.79
2023-04-22T17:00:21.105Z,34.27
2023-04-22T17:04:38.930Z,34.57
2023-04-22T17:08:56.703Z,36.55
2023-04-22T17:13:16.014Z,37.24
2023-04-22T17:17:33.879Z,39.39
2023-04-22T17:21:51.487Z,40.35
2023-04-22T17:26:09.199Z,41.71
2023-04-22T17:30:26.789Z,42.09
2023-04-22T17:34:44.614Z,43.31
2023-04-22T17:39:02.173Z,44.48
2023-04-22T17:43:20.279Z,44.99
2023-04-22T17:47:37.816Z,47.51
2023-04-22T17:51:56.004Z,50.11
2023-04-22T17:56:13.687Z,53.39
2023-04-22T18:00:36.365Z,55.81
2023-04-22T18:04:54.376Z,57.72
2023-04-22T18:09:12.003Z,59.46
2023-04-22T18:13:29.830Z,61.27
2023-04-22T18:17:47.400Z,62.66
2023-04-22T18:22:05.283Z,63.80
2023-04-22T18:26:23.280Z,64.86
2023-04-22T18:30:40.965Z,65.37
2023-04-22T18:34:59.077Z,65.62
2023-04-22T18:39:16.958Z,66.60
2023-04-22T18:43:34.822Z,67.71
2023-04-22T18:47:53.003Z,68.69
2023-04-22T18:52:11.290Z,69.20
2023-04-22T18:56:30.320Z,70.30
2023-04-22T19:00:48.006Z,70.17
2023-04-22T19:05:06.620Z,70.47
2023-04-22T19:09:24.366Z,71.13
2023-04-22T19:13:43.006Z,71.59
2023-04-22T19:18:02.559Z,71.86
2023-04-22T19:22:21.521Z,72.12
2023-04-22T19:26:39.339Z,72.94
2023-04-22T19:30:57.234Z,72.85
2023-04-22T19:35:16.646Z,73.33
2023-04-22T19:39:34.444Z,73.44
2023-04-22T19:43:52.140Z,73.60
2023-04-22T19:48:11.314Z,73.82
2023-04-22T19:52:30.204Z,73.91
2023-04-22T19:56:52.012Z,74.45
2023-04-22T20:01:10.054Z,74.91
2023-04-22T20:05:28.619Z,75.28
2023-04-22T20:09:46.859Z,76.14
2023-04-22T20:14:14.046Z,76.63
2023-04-22T20:18:31.802Z,76.83
2023-04-22T20:22:53.352Z,76.73
2023-04-22T20:27:11.471Z,76.96
2023-04-22T20:31:29.421Z,76.99
2023-04-22T20:35:49.248Z,77.39
2023-04-22T20:40:10.716Z,78.30
2023-04-22T20:44:28.394Z,78.71
2023-04-22T20:48:46.520Z,79.33
2023-04-22T20:53:07.263Z,79.05
2023-04-22T20:57:28.780Z,78.75
2023-04-22T21:01:47.577Z,78.84
2023-04-22T21:06:06.018Z,79.30
2023-04-22T21:10:24.412Z,79.24
2023-04-22T21:14:43.599Z,79.54
2023-04-22T21:19:03.966Z,79.73
2023-04-22T21:23:24.635Z,79.85
2023-04-22T21:27:42.462Z,80.09
2023-04-22T21:32:08.660Z,80.31
2023-04-22T21:36:27.341Z,80.10
2023-04-22T21:40:46.401Z,80.29
2023-04-22T21:45:04.826Z,80.67
2023-04-22T21:49:23.238Z,80.99
2023-04-22T21:53:41.435Z,81.09
2023-04-22T21:57:59.368Z,80.98
2023-04-22T22:02:16.971Z,81.14
2023-04-22T22:06:34.848Z,81.38
2023-04-22T22:10:52.380Z,81.63
2023-04-22T22:15:11.011Z,81.65
2023-04-22T22:19:30.787Z,81.83
2023-04-22T22:23:48.480Z,82.02
2023-04-22T22:28:06.040Z,81.86
2023-04-22T22:32:23.888Z,81.96
2023-04-22T22:36:41.859Z,81.89
2023-04-22T22:40:59.545Z,82.02
2023-04-22T22:45:19.856Z,82.05
2023-04-22T22:49:38.464Z,82.22
2023-04-22T22:53:56.233Z,82.56
2023-04-22T22:58:17.476Z,82.80
2023-04-22T23:02:36.912Z,83.13
2023-04-22T23:06:56.037Z,83.01
2023-04-22T23:11:13.595Z,82.86
2023-04-22T23:15:31.303Z,82.76
2023-04-22T23:19:52.164Z,83.01
2023-04-22T23:24:11.407Z,82.82
2023-04-22T23:28:29.430Z,82.75
2023-04-22T23:32:52.321Z,82.88
2023-04-22T23:37:13.736Z,82.98
2023-04-22T23:41:32.234Z,82.84
2023-04-22T23:45:49.817Z,83.02
2023-04-22T23:50:09.159Z,82.64
2023-04-22T23:54:27.854Z,82.42
2023-04-22T23:58:46.445Z,82.65
